Time;durP1;ratioP1;P1;durP2;ratioP2;P2;SDS_P1;SDS_P2;PMS_P1;PMS_P2;Temp;Humidity;BMP_temperature;BMP_pressure;BME280_temperature;BME280_humidity;BME280_pressure;Samples;Min_cycle;Max_cycle;Signal;HPM_P1;HPM_P2
2020/12/11 00:00:28;;;;;;;6.38;4.18;;;;;;;;;;5053439;28;20379;-60
2020/12/11 00:02:54;;;;;;;6.53;4.10;;;;;;;;;;5053265;28;20029;-59
2020/12/11 00:05:20;;;;;;;5.38;3.88;;;;;;;;;;5053338;28;20388;-60
2020/12/11 00:07:47;;;;;;;6.53;4.28;;;;;;;;;;5053187;28;20025;-60
2020/12/11 00:10:14;;;;;;;6.18;3.78;;;;;;;;;;5053106;28;20108;-60
2020/12/11 00:12:40;;;;;;;6.70;3.40;;;;;;;;;;5053438;28;20032;-59
2020/12/11 00:15:07;;;;;;;6.10;4.20;;;;;;;;;;5053154;28;20044;-59
2020/12/11 00:17:33;;;;;;;5.63;3.60;;;;;;;;;;5052925;28;20029;-59
2020/12/11 00:20:00;;;;;;;8.23;4.13;;;;;;;;;;5052787;28;20493;-59
2020/12/11 00:22:26;;;;;;;5.63;4.00;;;;;;;;;;5053259;28;20123;-59
2020/12/11 00:24:52;;;;;;;6.50;4.03;;;;;;;;;;5053407;28;20029;-59
2020/12/11 00:27:19;;;;;;;7.22;4.45;;;;;;;;;;5053195;28;20048;-59
2020/12/11 00:29:45;;;;;;;5.57;4.15;;;;;;;;;;5052893;28;20032;-59
2020/12/11 00:32:11;;;;;;;7.30;5.00;;;;;;;;;;5053176;28;20136;-59
2020/12/11 00:34:37;;;;;;;5.40;3.45;;;;;;;;;;5052985;28;20026;-59
2020/12/11 00:37:08;;;;;;;7.03;4.15;;;;;;;;;;5052713;28;20124;-59
2020/12/11 00:39:34;;;;;;;7.45;4.65;;;;;;;;;;5052798;28;20486;-59
2020/12/11 00:42:00;;;;;;;6.57;4.18;;;;;;;;;;5053011;28;20029;-59
2020/12/11 00:44:27;;;;;;;6.95;4.03;;;;;;;;;;5034928;28;20374;-59
2020/12/11 00:46:53;;;;;;;5.25;3.85;;;;;;;;;;5052778;28;20028;-59
2020/12/11 00:49:19;;;;;;;8.88;4.07;;;;;;;;;;5052747;28;20539;-59
2020/12/11 00:51:45;;;;;;;6.18;4.07;;;;;;;;;;5052587;28;20071;-59
2020/12/11 00:54:11;;;;;;;6.53;3.97;;;;;;;;;;5052674;28;20025;-59
2020/12/11 00:56:38;;;;;;;6.68;3.92;;;;;;;;;;5055679;28;20044;-59
2020/12/11 00:59:04;;;;;;;6.57;4.13;;;;;;;;;;5056802;28;20021;-59
2020/12/11 01:01:30;;;;;;;8.30;4.25;;;;;;;;;;5056357;28;20107;-59
2020/12/11 01:03:56;;;;;;;5.97;3.85;;;;;;;;;;5056414;28;20017;-59
2020/12/11 01:06:22;;;;;;;4.97;3.80;;;;;;;;;;5056531;28;20355;-59
2020/12/11 01:08:48;;;;;;;7.38;4.22;;;;;;;;;;5056297;28;20021;-59
2020/12/11 01:11:14;;;;;;;8.50;4.22;;;;;;;;;;5056227;28;20029;-59
2020/12/11 01:13:40;;;;;;;5.30;3.65;;;;;;;;;;5056544;28;20377;-59
2020/12/11 01:16:06;;;;;;;5.88;3.60;;;;;;;;;;5055992;28;20112;-59
2020/12/11 01:18:33;;;;;;;5.97;4.30;;;;;;;;;;5056098;28;20025;-59
2020/12/11 01:20:59;;;;;;;7.50;4.30;;;;;;;;;;5055851;28;20098;-59
2020/12/11 01:23:25;;;;;;;6.40;4.72;;;;;;;;;;5056235;28;20432;-59
2020/12/11 01:25:51;;;;;;;7.82;4.85;;;;;;;;;;5055861;28;20536;-59
2020/12/11 01:28:17;;;;;;;7.78;5.20;;;;;;;;;;5055919;28;20021;-59
2020/12/11 01:30:43;;;;;;;7.43;4.90;;;;;;;;;;5055870;28;20104;-59
2020/12/11 01:33:09;;;;;;;8.52;5.50;;;;;;;;;;5055830;28;20116;-59
2020/12/11 01:35:35;;;;;;;7.50;5.10;;;;;;;;;;5056097;28;20075;-59
2020/12/11 01:38:02;;;;;;;8.27;4.50;;;;;;;;;;5056125;28;20382;-59
2020/12/11 01:40:40;;;;;;;6.97;4.53;;;;;;;;;;5055664;28;20020;-59
2020/12/11 01:43:06;;;;;;;7.63;4.90;;;;;;;;;;5055964;28;20060;-59
2020/12/11 01:45:33;;;;;;;8.38;4.30;;;;;;;;;;5037810;28;20479;-59
2020/12/11 01:47:59;;;;;;;6.85;4.35;;;;;;;;;;5055950;28;20065;-59
2020/12/11 01:50:25;;;;;;;7.38;5.03;;;;;;;;;;5055501;28;20032;-59
2020/12/11 01:52:52;;;;;;;8.70;4.35;;;;;;;;;;5055750;28;20029;-59
2020/12/11 01:55:18;;;;;;;5.90;4.38;;;;;;;;;;5055724;28;20021;-58
2020/12/11 01:57:47;;;;;;;6.20;4.35;;;;;;;;;;5055329;28;20470;-59
2020/12/11 02:00:13;;;;;;;5.72;3.92;;;;;;;;;;5055450;28;20075;-59
2020/12/11 02:02:41;;;;;;;6.95;4.05;;;;;;;;;;5055245;28;20115;-59
2020/12/11 02:05:08;;;;;;;5.93;4.32;;;;;;;;;;5055326;28;20029;-59
2020/12/11 02:07:43;;;;;;;4.80;3.58;;;;;;;;;;5054989;28;20031;-59
2020/12/11 02:10:10;;;;;;;5.68;3.50;;;;;;;;;;5055245;28;20029;-58
2020/12/11 02:12:37;;;;;;;5.45;3.92;;;;;;;;;;5055075;28;20540;-59
2020/12/11 02:15:05;;;;;;;5.60;3.92;;;;;;;;;;5055224;28;20036;-59
2020/12/11 02:17:31;;;;;;;6.60;3.85;;;;;;;;;;5055236;28;20378;-59
2020/12/11 02:19:57;;;;;;;7.47;4.10;;;;;;;;;;5054783;28;20045;-58
2020/12/11 02:22:23;;;;;;;7.00;3.92;;;;;;;;;;5055112;28;20032;-59
2020/12/11 02:24:52;;;;;;;6.95;4.15;;;;;;;;;;5054889;28;20029;-58
2020/12/11 02:27:19;;;;;;;6.05;4.32;;;;;;;;;;5055534;28;20063;-59
2020/12/11 02:29:45;;;;;;;6.25;3.95;;;;;;;;;;5054822;28;20029;-59
2020/12/11 02:32:14;;;;;;;6.53;4.22;;;;;;;;;;5054970;28;20370;-59
2020/12/11 02:34:41;;;;;;;9.68;5.72;;;;;;;;;;5054836;28;20024;-59
2020/12/11 02:37:07;;;;;;;30.67;14.38;;;;;;;;;;5054527;28;20098;-59
2020/12/11 02:39:33;;;;;;;30.80;12.52;;;;;;;;;;5054681;28;20029;-59
2020/12/11 02:41:59;;;;;;;57.60;23.60;;;;;;;;;;5054481;28;20025;-59
2020/12/11 02:44:25;;;;;;;35.90;15.75;;;;;;;;;;5054603;28;20100;-59
2020/12/11 02:46:52;;;;;;;12.38;7.18;;;;;;;;;;5054785;28;20472;-59
2020/12/11 02:49:18;;;;;;;10.88;5.95;;;;;;;;;;5054759;28;20075;-59
2020/12/11 02:51:44;;;;;;;8.75;4.93;;;;;;;;;;5054479;28;20485;-59
2020/12/11 02:54:11;;;;;;;8.05;5.82;;;;;;;;;;5054389;28;20108;-58
2020/12/11 02:56:37;;;;;;;8.48;5.72;;;;;;;;;;5054248;28;20044;-58
2020/12/11 02:59:03;;;;;;;7.80;5.53;;;;;;;;;;5054262;28;20083;-59
2020/12/11 03:01:29;;;;;;;7.13;5.13;;;;;;;;;;5054260;28;20035;-58
2020/12/11 03:03:55;;;;;;;10.02;5.07;;;;;;;;;;5054047;28;20032;-59
2020/12/11 03:06:28;;;;;;;9.85;4.85;;;;;;;;;;5036489;28;20047;-59
2020/12/11 03:08:55;;;;;;;10.80;5.82;;;;;;;;;;5054047;28;20036;-59
2020/12/11 03:11:21;;;;;;;6.93;4.75;;;;;;;;;;5053967;28;20021;-59
2020/12/11 03:13:47;;;;;;;7.35;5.35;;;;;;;;;;5053823;28;20029;-58
2020/12/11 03:16:16;;;;;;;9.13;5.38;;;;;;;;;;5054198;28;20071;-59
2020/12/11 03:18:42;;;;;;;11.43;5.82;;;;;;;;;;5053186;28;20052;-59
2020/12/11 03:21:08;;;;;;;9.55;6.40;;;;;;;;;;5053589;28;20069;-59
2020/12/11 03:23:34;;;;;;;9.25;5.38;;;;;;;;;;5053973;28;20029;-59
2020/12/11 03:26:01;;;;;;;8.65;5.88;;;;;;;;;;5053571;28;20052;-59
2020/12/11 03:28:27;;;;;;;9.38;6.32;;;;;;;;;;5053987;28;20428;-59
2020/12/11 03:30:53;;;;;;;8.65;5.85;;;;;;;;;;5053554;28;20028;-58
2020/12/11 03:33:19;;;;;;;7.53;5.32;;;;;;;;;;5053633;28;20044;-59
2020/12/11 03:35:45;;;;;;;8.02;5.32;;;;;;;;;;5053925;28;20086;-59
2020/12/11 03:38:11;;;;;;;8.93;5.28;;;;;;;;;;5053901;28;20106;-58
2020/12/11 03:40:37;;;;;;;9.68;6.18;;;;;;;;;;5053812;28;20438;-58
2020/12/11 03:43:03;;;;;;;9.18;5.20;;;;;;;;;;5053331;28;20056;-58
2020/12/11 03:45:29;;;;;;;9.18;5.63;;;;;;;;;;5053470;28;20031;-59
2020/12/11 03:47:56;;;;;;;7.75;4.93;;;;;;;;;;5053322;28;20029;-58
2020/12/11 03:50:22;;;;;;;7.07;5.10;;;;;;;;;;5053374;28;20017;-59
2020/12/11 03:52:48;;;;;;;8.73;5.32;;;;;;;;;;5053534;28;20035;-60
2020/12/11 03:55:14;;;;;;;8.13;5.32;;;;;;;;;;5053587;28;20390;-59
2020/12/11 03:57:40;;;;;;;7.18;4.70;;;;;;;;;;5053290;28;20493;-59
2020/12/11 04:00:06;;;;;;;6.55;4.45;;;;;;;;;;5053269;28;20492;-59
2020/12/11 04:02:36;;;;;;;7.82;5.13;;;;;;;;;;5053476;28;20059;-59
2020/12/11 04:05:06;;;;;;;8.07;5.00;;;;;;;;;;5053516;28;20457;-59
2020/12/11 04:07:32;;;;;;;7.70;4.82;;;;;;;;;;5053189;28;20029;-59
2020/12/11 04:09:58;;;;;;;7.82;4.75;;;;;;;;;;5035231;28;20025;-59
2020/12/11 04:12:25;;;;;;;7.03;4.80;;;;;;;;;;5053298;28;20032;-59
2020/12/11 04:14:51;;;;;;;7.38;4.32;;;;;;;;;;5053012;28;20386;-59
2020/12/11 04:17:17;;;;;;;9.68;4.60;;;;;;;;;;5053010;28;20067;-59
2020/12/11 04:19:43;;;;;;;7.05;4.00;;;;;;;;;;5052981;28;20071;-58
2020/12/11 04:22:09;;;;;;;10.30;4.90;;;;;;;;;;5053255;28;20362;-59
2020/12/11 04:24:35;;;;;;;8.82;4.65;;;;;;;;;;5052919;28;20029;-59
2020/12/11 04:27:01;;;;;;;8.02;4.70;;;;;;;;;;5052840;28;20025;-59
2020/12/11 04:29:28;;;;;;;12.75;4.70;;;;;;;;;;5053954;28;20064;-59
2020/12/11 04:31:57;;;;;;;7.63;5.53;;;;;;;;;;5057317;28;20033;-59
2020/12/11 04:34:23;;;;;;;9.15;4.45;;;;;;;;;;5056915;28;20044;-59
2020/12/11 04:36:53;;;;;;;7.43;4.07;;;;;;;;;;5056779;28;20037;-59
2020/12/11 04:39:19;;;;;;;6.88;4.13;;;;;;;;;;5056866;28;20592;-59
2020/12/11 04:41:46;;;;;;;6.75;4.60;;;;;;;;;;5056140;28;20068;-59
2020/12/11 04:44:12;;;;;;;6.10;4.00;;;;;;;;;;5056881;28;20033;-59
2020/12/11 04:46:39;;;;;;;6.90;3.97;;;;;;;;;;5056978;28;20033;-59
2020/12/11 04:49:06;;;;;;;11.52;4.70;;;;;;;;;;5056575;28;20385;-59
2020/12/11 04:51:33;;;;;;;7.15;4.40;;;;;;;;;;5057035;28;20079;-59
2020/12/11 04:54:00;;;;;;;7.78;4.55;;;;;;;;;;5056715;28;20104;-59
2020/12/11 04:56:26;;;;;;;6.78;4.75;;;;;;;;;;5056664;28;20086;-59
2020/12/11 04:58:53;;;;;;;9.65;5.03;;;;;;;;;;5056468;28;20062;-59
2020/12/11 05:01:27;;;;;;;15.95;5.25;;;;;;;;;;5056728;28;20060;-59
2020/12/11 05:03:54;;;;;;;13.10;6.10;;;;;;;;;;5056256;28;20025;-59
2020/12/11 05:06:20;;;;;;;9.02;5.88;;;;;;;;;;5056342;28;20025;-59
2020/12/11 05:08:47;;;;;;;10.70;6.85;;;;;;;;;;5056161;28;20021;-59
2020/12/11 05:11:28;;;;;;;12.70;7.18;;;;;;;;;;5056432;28;20017;-59
2020/12/11 05:13:55;;;;;;;13.73;8.00;;;;;;;;;;5056272;28;20021;-58
2020/12/11 05:16:21;;;;;;;13.65;8.10;;;;;;;;;;5056316;28;20035;-59
2020/12/11 05:18:48;;;;;;;12.10;7.28;;;;;;;;;;5056125;28;20415;-59
2020/12/11 05:21:18;;;;;;;11.38;6.57;;;;;;;;;;5055926;28;20393;-59
2020/12/11 05:23:56;;;;;;;9.70;5.30;;;;;;;;;;5056193;28;20040;-59
2020/12/11 05:26:22;;;;;;;7.40;4.35;;;;;;;;;;5055919;28;20052;-59
2020/12/11 05:28:49;;;;;;;9.95;4.05;;;;;;;;;;5056296;28;20206;-59
2020/12/11 05:31:15;;;;;;;6.90;3.30;;;;;;;;;;5055692;28;20060;-59
2020/12/11 05:34:00;;;;;;;6.55;3.65;;;;;;;;;;5055790;28;20494;-59
2020/12/11 05:36:26;;;;;;;7.30;3.88;;;;;;;;;;5055924;28;20037;-59
2020/12/11 05:38:52;;;;;;;7.75;4.30;;;;;;;;;;5055691;28;20070;-59
2020/12/11 05:41:36;;;;;;;10.90;4.40;;;;;;;;;;5055436;28;20431;-59
2020/12/11 05:44:02;;;;;;;10.02;4.80;;;;;;;;;;5055555;28;20029;-59
2020/12/11 05:46:29;;;;;;;6.57;4.45;;;;;;;;;;5055522;28;20501;-59
2020/12/11 05:48:57;;;;;;;13.48;4.88;;;;;;;;;;5055564;28;20021;-59
2020/12/11 05:51:25;;;;;;;5.85;3.88;;;;;;;;;;5055397;28;20029;-59
2020/12/11 05:53:53;;;;;;;6.85;4.80;;;;;;;;;;5055465;28;20098;-59
2020/12/11 05:56:21;;;;;;;9.43;4.55;;;;;;;;;;5055291;28;20174;-59
2020/12/11 05:58:51;;;;;;;15.13;5.07;;;;;;;;;;5055401;28;20033;-59
2020/12/11 06:01:18;;;;;;;7.57;3.90;;;;;;;;;;5055362;28;20021;-60
2020/12/11 06:03:45;;;;;;;5.80;4.28;;;;;;;;;;5055466;28;20373;-59
2020/12/11 06:06:16;;;;;;;7.78;3.78;;;;;;;;;;5055245;28;20540;-59
2020/12/11 06:08:43;;;;;;;8.02;4.00;;;;;;;;;;5055148;28;20029;-60
2020/12/11 06:11:16;;;;;;;10.60;4.88;;;;;;;;;;5055021;28;20200;-59
2020/12/11 06:13:49;;;;;;;7.18;5.03;;;;;;;;;;5055324;28;20025;-59
2020/12/11 06:16:16;;;;;;;8.88;5.75;;;;;;;;;;5054873;28;20041;-59
2020/12/11 06:18:43;;;;;;;13.32;4.97;;;;;;;;;;5054975;28;20021;-59
2020/12/11 06:21:10;;;;;;;7.30;5.45;;;;;;;;;;5054657;28;20569;-59
2020/12/11 06:23:40;;;;;;;10.25;5.70;;;;;;;;;;5054797;28;20040;-59
2020/12/11 06:26:07;;;;;;;13.55;5.47;;;;;;;;;;5054740;28;20553;-60
2020/12/11 06:28:36;;;;;;;10.93;5.90;;;;;;;;;;5055004;28;20063;-59
2020/12/11 06:31:03;;;;;;;9.10;5.07;;;;;;;;;;5054674;28;20021;-60
2020/12/11 06:33:30;;;;;;;9.65;4.80;;;;;;;;;;5054672;28;20024;-60
2020/12/11 06:35:57;;;;;;;8.27;4.28;;;;;;;;;;5054486;28;20067;-59
2020/12/11 06:38:41;;;;;;;8.93;4.60;;;;;;;;;;5054470;28;20036;-58
2020/12/11 06:41:08;;;;;;;8.02;4.28;;;;;;;;;;5054764;28;20028;-60
2020/12/11 06:43:40;;;;;;;17.45;4.63;;;;;;;;;;5054443;28;20032;-59
2020/12/11 06:46:10;;;;;;;13.07;4.88;;;;;;;;;;5054351;28;20043;-60
2020/12/11 06:48:36;;;;;;;9.73;4.70;;;;;;;;;;5054608;28;20025;-59
2020/12/11 06:51:04;;;;;;;9.18;5.78;;;;;;;;;;5054178;28;20025;-59
2020/12/11 06:53:40;;;;;;;11.13;5.55;;;;;;;;;;5053318;28;20515;-59
2020/12/11 06:56:06;;;;;;;12.48;6.07;;;;;;;;;;5053853;28;20037;-59
2020/12/11 06:58:33;;;;;;;12.98;6.32;;;;;;;;;;5054155;28;20028;-59
2020/12/11 07:00:59;;;;;;;15.02;6.43;;;;;;;;;;5054062;28;20044;-59
2020/12/11 07:03:28;;;;;;;15.02;6.90;;;;;;;;;;5054158;28;20057;-59
2020/12/11 07:05:58;;;;;;;16.08;6.55;;;;;;;;;;5054037;28;20398;-59
2020/12/11 07:08:24;;;;;;;20.88;6.85;;;;;;;;;;5053898;28;20426;-60
2020/12/11 07:10:50;;;;;;;14.05;6.22;;;;;;;;;;5053905;28;20052;-60
2020/12/11 07:13:16;;;;;;;17.85;6.68;;;;;;;;;;5053670;28;20029;-59
2020/12/11 07:15:43;;;;;;;34.33;7.95;;;;;;;;;;5053792;28;20033;-59
2020/12/11 07:18:13;;;;;;;30.05;7.03;;;;;;;;;;5053741;28;20033;-59
2020/12/11 07:20:44;;;;;;;19.30;6.95;;;;;;;;;;5053421;28;20079;-59
2020/12/11 07:23:10;;;;;;;38.63;8.10;;;;;;;;;;5053631;28;20021;-60
2020/12/11 07:25:37;;;;;;;33.92;8.25;;;;;;;;;;5053528;28;20029;-59
2020/12/11 07:28:04;;;;;;;14.85;5.40;;;;;;;;;;5053885;28;20099;-59
2020/12/11 07:30:30;;;;;;;13.95;6.20;;;;;;;;;;5053649;28;20028;-59
2020/12/11 07:32:56;;;;;;;10.77;5.38;;;;;;;;;;5053477;28;20151;-59
2020/12/11 07:35:23;;;;;;;16.60;6.05;;;;;;;;;;5053546;28;20076;-59
2020/12/11 07:37:50;;;;;;;9.35;5.53;;;;;;;;;;5053808;28;20037;-59
2020/12/11 07:40:17;;;;;;;9.00;4.68;;;;;;;;;;5053502;28;20381;-58
2020/12/11 07:42:44;;;;;;;26.92;8.95;;;;;;;;;;5053609;28;20075;-59
2020/12/11 07:45:10;;;;;;;12.65;5.55;;;;;;;;;;5053399;28;20116;-59
2020/12/11 07:47:36;;;;;;;8.07;4.65;;;;;;;;;;5053570;28;20036;-59
2020/12/11 07:50:06;;;;;;;14.60;5.47;;;;;;;;;;5053317;28;20048;-59
2020/12/11 07:52:33;;;;;;;16.90;5.18;;;;;;;;;;5053412;28;20025;-59
2020/12/11 07:55:00;;;;;;;10.20;4.65;;;;;;;;;;5053205;28;20052;-59
2020/12/11 07:57:26;;;;;;;8.40;4.32;;;;;;;;;;5052970;28;20428;-60
2020/12/11 07:59:56;;;;;;;7.32;4.75;;;;;;;;;;5053225;28;20021;-59
2020/12/11 08:02:23;;;;;;;5.32;4.05;;;;;;;;;;5053140;28;20083;-59
2020/12/11 08:04:50;;;;;;;11.07;4.78;;;;;;;;;;5053175;28;20059;-59
2020/12/11 08:07:29;;;;;;;11.02;4.78;;;;;;;;;;5053228;28;20084;-59
2020/12/11 08:10:07;;;;;;;16.52;5.00;;;;;;;;;;5053067;28;20488;-59
2020/12/11 08:12:33;;;;;;;25.75;6.25;;;;;;;;;;5053052;28;20494;-59
2020/12/11 08:14:59;;;;;;;12.55;5.82;;;;;;;;;;5053221;28;20025;-59
2020/12/11 08:17:25;;;;;;;15.75;5.35;;;;;;;;;;5053157;28;20572;-59
2020/12/11 08:20:00;;;;;;;10.85;5.03;;;;;;;;;;5052759;28;20037;-60
2020/12/11 08:22:33;;;;;;;14.55;6.35;;;;;;;;;;5053055;28;20029;-59
2020/12/11 08:25:00;;;;;;;33.35;8.32;;;;;;;;;;5053309;28;20469;-59
2020/12/11 08:27:28;;;;;;;13.50;4.90;;;;;;;;;;5053114;28;20070;-59
2020/12/11 08:30:03;;;;;;;17.60;6.70;;;;;;;;;;5053159;28;20407;-59
2020/12/11 08:32:29;;;;;;;26.00;7.53;;;;;;;;;;5053011;28;20429;-59
2020/12/11 08:34:55;;;;;;;16.88;6.43;;;;;;;;;;5053238;28;20029;-59
2020/12/11 08:37:21;;;;;;;17.98;6.90;;;;;;;;;;5053022;28;20105;-59
2020/12/11 08:39:47;;;;;;;20.17;6.90;;;;;;;;;;5053240;28;20439;-58
2020/12/11 08:50:44;;;;;;;17.95;7.80;;;;;;;;;;5018989;28;20025;-59
2020/12/11 08:53:12;;;;;;;13.90;6.38;;;;;;;;;;5052896;28;20025;-59
2020/12/11 08:55:39;;;;;;;15.95;6.75;;;;;;;;;;5052561;28;20111;-59
2020/12/11 08:58:05;;;;;;;17.02;6.85;;;;;;;;;;5052881;28;20033;-59
2020/12/11 09:00:31;;;;;;;22.65;7.28;;;;;;;;;;5052600;28;20025;-59
2020/12/11 09:02:57;;;;;;;14.30;5.80;;;;;;;;;;5052644;28;20040;-59
2020/12/11 09:05:25;;;;;;;30.85;6.82;;;;;;;;;;5052841;28;20049;-59
2020/12/11 09:07:52;;;;;;;26.73;8.80;;;;;;;;;;5052802;28;20083;-59
2020/12/11 09:10:18;;;;;;;25.88;9.13;;;;;;;;;;5052772;28;20036;-59
2020/12/11 09:12:47;;;;;;;19.13;8.43;;;;;;;;;;5052496;28;20028;-58
2020/12/11 09:15:13;;;;;;;15.00;7.13;;;;;;;;;;5034377;28;20047;-58
2020/12/11 09:17:40;;;;;;;11.88;6.80;;;;;;;;;;5055396;28;20053;-59
2020/12/11 09:20:06;;;;;;;9.45;5.60;;;;;;;;;;5056017;28;20041;-59
2020/12/11 09:22:33;;;;;;;13.52;6.85;;;;;;;;;;5055897;28;20481;-59
2020/12/11 09:24:59;;;;;;;13.02;6.90;;;;;;;;;;5055974;28;20111;-59
2020/12/11 09:27:25;;;;;;;27.90;7.80;;;;;;;;;;5055917;28;20075;-59
2020/12/11 09:29:53;;;;;;;14.25;7.28;;;;;;;;;;5056198;28;20021;-59
2020/12/11 09:32:56;;;;;;;15.10;7.47;;;;;;;;;;5056222;28;20040;-59
2020/12/11 09:35:13;;;;;;;17.65;7.43;;;;;;;;;;5052507;28;20104;-57
2020/12/11 09:37:39;;;;;;;13.00;7.25;;;;;;;;;;5054177;28;20477;-58
2020/12/11 09:40:05;;;;;;;21.48;7.70;;;;;;;;;;5055470;28;20104;-58
2020/12/11 09:42:51;;;;;;;25.05;7.78;;;;;;;;;;5055518;28;20478;-59
2020/12/11 09:56:04;;;;;;;12.07;6.43;;;;;;;;;;5055665;28;20516;-58
2020/12/11 09:58:33;;;;;;;12.75;7.10;;;;;;;;;;5055449;28;20048;-59
2020/12/11 10:01:01;;;;;;;12.10;7.10;;;;;;;;;;5055610;28;20509;-59
2020/12/11 10:03:34;;;;;;;13.57;7.00;;;;;;;;;;5055249;28;20477;-59
2020/12/11 10:06:00;;;;;;;10.25;5.68;;;;;;;;;;5054968;28;20536;-58
2020/12/11 10:08:26;;;;;;;9.75;5.00;;;;;;;;;;5055392;28;20032;-59
2020/12/11 10:10:53;;;;;;;8.98;4.90;;;;;;;;;;5054812;28;20021;-58
2020/12/11 10:13:20;;;;;;;11.35;5.80;;;;;;;;;;5037030;28;20103;-58
2020/12/11 10:15:46;;;;;;;11.88;5.25;;;;;;;;;;5054142;28;20508;-58
2020/12/11 10:18:12;;;;;;;15.57;6.68;;;;;;;;;;5055036;28;20036;-57
2020/12/11 10:20:41;;;;;;;18.90;6.53;;;;;;;;;;5054275;28;20037;-53
2020/12/11 10:23:07;;;;;;;22.25;8.18;;;;;;;;;;5054839;28;20029;-57
2020/12/11 10:25:33;;;;;;;8.93;5.05;;;;;;;;;;5054841;28;20057;-59
2020/12/11 10:27:59;;;;;;;19.73;7.43;;;;;;;;;;5054722;28;20033;-59
2020/12/11 10:30:25;;;;;;;12.45;4.82;;;;;;;;;;5054779;28;20021;-59
2020/12/11 10:32:51;;;;;;;15.13;4.85;;;;;;;;;;5054675;28;20033;-59
2020/12/11 10:35:17;;;;;;;6.68;4.50;;;;;;;;;;5054843;28;20021;-59
2020/12/11 10:37:43;;;;;;;14.30;5.80;;;;;;;;;;5054868;28;20073;-59
2020/12/11 10:40:11;;;;;;;9.88;5.30;;;;;;;;;;5054421;28;20104;-59
2020/12/11 10:42:37;;;;;;;9.95;4.75;;;;;;;;;;5054550;28;20036;-59
2020/12/11 10:45:03;;;;;;;12.30;4.88;;;;;;;;;;5054417;28;20025;-59
2020/12/11 10:47:30;;;;;;;7.65;4.40;;;;;;;;;;5053861;28;20033;-59
2020/12/11 10:49:56;;;;;;;10.18;4.60;;;;;;;;;;5054323;28;20021;-59
2020/12/11 10:52:22;;;;;;;9.85;4.95;;;;;;;;;;5054355;28;20025;-59
2020/12/11 10:54:49;;;;;;;14.70;5.57;;;;;;;;;;5053602;28;20025;-59
2020/12/11 10:57:15;;;;;;;31.67;15.40;;;;;;;;;;5054087;28;20130;-59
2020/12/11 10:59:41;;;;;;;33.13;17.05;;;;;;;;;;5054272;28;20382;-59
2020/12/11 11:02:08;;;;;;;59.83;24.73;;;;;;;;;;5053086;28;20067;-59
2020/12/11 11:04:34;;;;;;;71.05;39.88;;;;;;;;;;5053793;28;20049;-59
2020/12/11 11:07:09;;;;;;;34.08;21.70;;;;;;;;;;5053287;28;20036;-59
2020/12/11 11:09:47;;;;;;;34.28;19.45;;;;;;;;;;5053775;28;20394;-59
2020/12/11 11:20:29;;;;;;;10.65;6.53;;;;;;;;;;5053070;28;20051;-59
2020/12/11 11:28:05;;;;;;;8.02;4.70;;;;;;;;;;5035437;28;20037;-59
2020/12/11 11:30:35;;;;;;;9.73;5.57;;;;;;;;;;5053557;28;20029;-58
2020/12/11 11:33:01;;;;;;;14.15;5.38;;;;;;;;;;5053680;28;20029;-58
2020/12/11 11:35:30;;;;;;;9.48;5.60;;;;;;;;;;5053041;28;20029;-56
2020/12/11 11:37:57;;;;;;;11.27;6.93;;;;;;;;;;5051788;28;20485;-59
2020/12/11 11:40:24;;;;;;;10.27;6.13;;;;;;;;;;5052203;28;20099;-58
2020/12/11 11:42:53;;;;;;;10.48;5.95;;;;;;;;;;5053604;28;20060;-59
2020/12/11 11:45:25;;;;;;;10.73;6.25;;;;;;;;;;5053122;28;20060;-58
2020/12/11 11:47:56;;;;;;;8.48;5.20;;;;;;;;;;5052843;28;20052;-59
2020/12/11 11:50:35;;;;;;;18.10;6.33;;;;;;;;;;5052751;28;20040;-59
2020/12/11 11:53:04;;;;;;;24.75;6.88;;;;;;;;;;5052115;28;20087;-59
2020/12/11 11:55:30;;;;;;;20.63;7.22;;;;;;;;;;5052912;28;20017;-56
2020/12/11 11:57:57;;;;;;;11.63;7.78;;;;;;;;;;5053186;28;20508;-58
2020/12/11 12:00:23;;;;;;;21.40;8.63;;;;;;;;;;5053162;28;20025;-58
2020/12/11 12:02:50;;;;;;;14.73;8.18;;;;;;;;;;5035287;28;20056;-58
2020/12/11 12:05:16;;;;;;;11.82;6.05;;;;;;;;;;5053070;28;20029;-59
2020/12/11 12:07:42;;;;;;;10.88;7.28;;;;;;;;;;5053294;28;20028;-59
2020/12/11 12:10:09;;;;;;;10.73;7.60;;;;;;;;;;5053237;28;20496;-57
2020/12/11 12:12:38;;;;;;;13.88;7.00;;;;;;;;;;5053071;28;20074;-56
2020/12/11 12:15:10;;;;;;;12.23;8.20;;;;;;;;;;5052978;28;20090;-59
2020/12/11 12:17:46;;;;;;;16.67;8.15;;;;;;;;;;5051215;28;20044;-58
2020/12/11 12:20:21;;;;;;;9.48;6.35;;;;;;;;;;5047502;28;20053;-58
2020/12/11 12:28:34;;;;;;;7.78;3.88;;;;;;;;;;5052994;28;20142;-59
2020/12/11 12:31:01;;;;;;;6.07;4.10;;;;;;;;;;5052854;28;20014;-59
2020/12/11 12:43:52;;;;;;;8.70;6.53;;;;;;;;;;5052876;28;20124;-59
2020/12/11 12:46:18;;;;;;;6.25;4.50;;;;;;;;;;5052547;28;20473;-59
2020/12/11 12:48:44;;;;;;;5.93;4.20;;;;;;;;;;5052726;28;20025;-59
2020/12/11 12:51:11;;;;;;;7.88;4.80;;;;;;;;;;5053130;28;20029;-59
2020/12/11 12:53:37;;;;;;;9.00;5.05;;;;;;;;;;5056542;28;20024;-59
2020/12/11 13:07:22;;;;;;;6.82;4.30;;;;;;;;;;5056228;28;20075;-59
2020/12/11 13:09:48;;;;;;;8.25;4.95;;;;;;;;;;5056191;28;20052;-59
2020/12/11 13:12:14;;;;;;;8.88;5.40;;;;;;;;;;5056217;28;20034;-59
2020/12/11 13:14:40;;;;;;;8.05;5.28;;;;;;;;;;5056180;28;20028;-59
2020/12/11 13:17:06;;;;;;;10.07;5.88;;;;;;;;;;5056125;28;20033;-59
2020/12/11 13:19:34;;;;;;;11.07;5.85;;;;;;;;;;5055961;28;20025;-59
2020/12/11 13:27:31;;;;;;;13.65;6.15;;;;;;;;;;5056704;28;20412;-59
2020/12/11 13:29:57;;;;;;;10.43;6.63;;;;;;;;;;5055838;28;20025;-59
2020/12/11 13:32:24;;;;;;;11.23;7.05;;;;;;;;;;5055907;28;20470;-59
2020/12/11 13:34:50;;;;;;;14.52;6.70;;;;;;;;;;5055868;28;20032;-58
2020/12/11 13:37:17;;;;;;;8.43;3.38;;;;;;;;;;5055969;28;20033;-59
2020/12/11 13:39:43;;;;;;;7.20;4.05;;;;;;;;;;5055874;28;20025;-59
2020/12/11 13:42:09;;;;;;;6.28;3.95;;;;;;;;;;5055997;28;20463;-58
2020/12/11 13:44:35;;;;;;;6.75;3.95;;;;;;;;;;5055902;28;20347;-60
2020/12/11 13:47:04;;;;;;;6.88;4.18;;;;;;;;;;5055574;28;20025;-59
2020/12/11 13:49:30;;;;;;;7.05;5.20;;;;;;;;;;5055630;28;20063;-59
2020/12/11 13:51:56;;;;;;;7.82;5.47;;;;;;;;;;5055770;28;20078;-59
2020/12/11 13:54:23;;;;;;;8.13;5.53;;;;;;;;;;5055825;28;20412;-55
2020/12/11 13:56:49;;;;;;;8.30;6.10;;;;;;;;;;5055417;28;20095;-58
2020/12/11 13:59:16;;;;;;;9.23;7.28;;;;;;;;;;5055663;28;20047;-59
2020/12/11 14:01:45;;;;;;;8.65;5.43;;;;;;;;;;5055160;28;20096;-59
2020/12/11 14:04:12;;;;;;;17.25;8.35;;;;;;;;;;5055246;28;20028;-59
2020/12/11 14:06:38;;;;;;;9.10;5.03;;;;;;;;;;5054548;28;20051;-59
2020/12/11 14:09:04;;;;;;;12.07;7.50;;;;;;;;;;5055083;28;20485;-59
2020/12/11 14:11:30;;;;;;;9.15;5.40;;;;;;;;;;5055098;28;20458;-58
2020/12/11 14:13:57;;;;;;;11.23;6.25;;;;;;;;;;5054937;28;20547;-58
2020/12/11 14:24:13;;;;;;;15.73;8.50;;;;;;;;;;5045801;28;20112;-59
2020/12/11 14:26:44;;;;;;;30.58;16.02;;;;;;;;;;5054938;28;20182;-59
2020/12/11 14:29:11;;;;;;;37.63;20.60;;;;;;;;;;5054776;28;20067;-60
2020/12/11 14:31:37;;;;;;;13.32;8.68;;;;;;;;;;5054927;28;20033;-58
2020/12/11 14:34:03;;;;;;;23.65;12.82;;;;;;;;;;5054592;28;20024;-58
2020/12/11 14:36:29;;;;;;;13.88;9.23;;;;;;;;;;5054852;28;20405;-59
2020/12/11 14:41:22;;;;;;;21.05;14.05;;;;;;;;;;5052295;28;20032;-58
2020/12/11 14:43:48;;;;;;;19.58;11.77;;;;;;;;;;5047186;28;20074;-59
2020/12/11 14:46:17;;;;;;;16.52;9.32;;;;;;;;;;5049735;28;20405;-58
2020/12/11 14:48:43;;;;;;;12.77;8.65;;;;;;;;;;5053554;28;20036;-59
2020/12/11 14:51:10;;;;;;;12.75;8.18;;;;;;;;;;5054707;28;20025;-60
2020/12/11 14:53:36;;;;;;;14.52;7.50;;;;;;;;;;5045759;28;20059;-59
2020/12/11 14:56:02;;;;;;;14.13;7.28;;;;;;;;;;5054542;28;20056;-59
2020/12/11 14:58:28;;;;;;;14.38;8.30;;;;;;;;;;5053338;28;20036;-59
2020/12/11 15:00:54;;;;;;;13.95;8.25;;;;;;;;;;5053160;28;20083;-59
2020/12/11 15:03:21;;;;;;;16.70;9.57;;;;;;;;;;5051982;28;20033;-58
2020/12/11 15:05:47;;;;;;;22.55;15.82;;;;;;;;;;5052105;28;20021;-59
2020/12/11 15:08:13;;;;;;;13.02;8.77;;;;;;;;;;5050256;28;20040;-59
2020/12/11 15:10:39;;;;;;;14.60;7.95;;;;;;;;;;5052540;28;20033;-59
2020/12/11 15:13:06;;;;;;;12.05;6.97;;;;;;;;;;5053599;28;20035;-59
2020/12/11 15:15:32;;;;;;;13.10;8.02;;;;;;;;;;5052386;28;20029;-59
2020/12/11 15:17:58;;;;;;;18.10;9.77;;;;;;;;;;5053959;28;20029;-59
2020/12/11 15:20:24;;;;;;;19.52;9.65;;;;;;;;;;5053752;28;20045;-59
2020/12/11 15:22:51;;;;;;;17.83;9.30;;;;;;;;;;5053682;28;20374;-58
2020/12/11 15:25:17;;;;;;;19.55;10.07;;;;;;;;;;5054086;28;20025;-59
2020/12/11 15:27:44;;;;;;;23.20;11.27;;;;;;;;;;5053917;28;20387;-59
2020/12/11 15:30:10;;;;;;;22.48;10.40;;;;;;;;;;5051498;28;20108;-59
2020/12/11 15:32:36;;;;;;;18.83;10.50;;;;;;;;;;5053267;28;20071;-59
2020/12/11 15:35:02;;;;;;;20.50;11.40;;;;;;;;;;5053510;28;20029;-59
2020/12/11 15:37:28;;;;;;;18.35;10.60;;;;;;;;;;5053401;28;20113;-59
2020/12/11 15:39:54;;;;;;;18.10;11.77;;;;;;;;;;5053188;28;20513;-58
2020/12/11 15:42:20;;;;;;;18.50;12.20;;;;;;;;;;5053390;28;20029;-59
2020/12/11 15:44:46;;;;;;;25.13;12.55;;;;;;;;;;5053344;28;20021;-60
2020/12/11 15:47:13;;;;;;;18.42;11.82;;;;;;;;;;5053564;28;20036;-60
2020/12/11 15:49:39;;;;;;;25.60;13.02;;;;;;;;;;5053465;28;20381;-59
2020/12/11 15:52:05;;;;;;;23.08;15.15;;;;;;;;;;5053501;28;20029;-59